Time;durP1;ratioP1;P1;durP2;ratioP2;P2;SDS_P1;SDS_P2;PMS_P1;PMS_P2;Temp;Humidity;BMP_temperature;BMP_pressure;BME280_temperature;BME280_humidity;BME280_pressure;Samples;Min_cycle;Max_cycle;Signal;HPM_P1;HPM_P2
2022/11/09 00:01:27;;;;;;;2.30;2.10;;;;;;;-141.84;62.18;19840.25;5033761;28;20205;-63
2022/11/09 00:03:56;;;;;;;2.90;2.27;;;;;;;-141.84;60.84;19854.50;5033177;28;20705;-63
2022/11/09 00:06:25;;;;;;;3.90;2.53;;;;;;;-141.84;60.86;19897.16;5033028;28;20604;-63
2022/11/09 00:08:56;;;;;;;2.72;2.53;;;;;;;-141.84;61.31;19854.50;5032344;28;20240;-64
2022/11/09 00:11:29;;;;;;;3.97;2.47;;;;;;;-141.84;60.92;19856.53;5033015;28;20257;-64
2022/11/09 00:13:58;;;;;;;3.55;2.25;;;;;;;-141.84;61.50;19860.59;5032456;28;20717;-65
2022/11/09 00:16:26;;;;;;;2.33;2.13;;;;;;;-141.84;61.80;19858.56;5033055;28;20526;-63
2022/11/09 00:18:54;;;;;;;2.23;2.03;;;;;;;-141.84;62.14;19819.94;5033019;28;20202;-63
2022/11/09 00:21:25;;;;;;;3.10;2.10;;;;;;;-141.84;61.78;19830.09;5032790;28;20313;-63
2022/11/09 00:23:55;;;;;;;3.03;2.63;;;;;;;-141.84;60.35;19901.22;5032587;28;20230;-63
2022/11/09 00:26:23;;;;;;;3.37;2.40;;;;;;;-141.84;60.74;19907.31;5032443;28;20230;-63
2022/11/09 00:28:52;;;;;;;2.33;2.07;;;;;;;-141.84;61.43;19874.81;5032375;28;20601;-64
2022/11/09 00:31:23;;;;;;;3.00;2.50;;;;;;;-141.84;61.32;19872.78;5032384;28;20209;-63
2022/11/09 00:33:52;;;;;;;2.67;2.17;;;;;;;-141.84;61.92;19866.69;5031809;28;20190;-63
2022/11/09 00:36:22;;;;;;;2.60;2.40;;;;;;;-141.84;61.32;19889.03;5032378;28;20245;-64
2022/11/09 00:38:53;;;;;;;2.73;2.30;;;;;;;-141.84;61.98;19872.78;5032489;28;20263;-64
2022/11/09 00:41:23;;;;;;;2.40;2.20;;;;;;;-141.84;61.99;19854.50;5032271;28;20222;-63
2022/11/09 00:43:52;;;;;;;2.80;1.93;;;;;;;-141.84;61.59;19864.66;5032316;28;20236;-62
2022/11/09 00:46:21;;;;;;;2.37;2.17;;;;;;;-141.84;61.52;19860.59;5031933;28;20234;-62
2022/11/09 00:48:50;;;;;;;2.80;2.27;;;;;;;-141.84;62.28;19817.91;5032652;28;20210;-64
2022/11/09 00:51:18;;;;;;;3.53;2.30;;;;;;;-141.84;63.32;19803.69;5032317;28;20307;-65
2022/11/09 00:53:47;;;;;;;2.90;2.40;;;;;;;-141.84;63.21;19813.84;5031916;28;20663;-63
2022/11/09 00:56:16;;;;;;;2.43;2.20;;;;;;;-141.84;62.93;19817.91;5032145;28;20313;-62
2022/11/09 00:58:46;;;;;;;4.00;2.50;;;;;;;-141.84;62.74;19821.97;5032115;28;20231;-64
2022/11/09 01:01:16;;;;;;;2.57;2.30;;;;;;;-141.84;61.95;19862.63;5032099;28;20619;-63
2022/11/09 01:03:46;;;;;;;2.38;2.08;;;;;;;-141.84;62.00;19874.81;5032574;28;20577;-64
2022/11/09 01:06:16;;;;;;;3.60;2.43;;;;;;;-141.84;62.03;19872.78;5031582;28;20233;-63
2022/11/09 01:08:45;;;;;;;2.80;2.27;;;;;;;-141.84;61.24;19876.84;5031761;28;20241;-63
2022/11/09 01:11:14;;;;;;;3.30;2.20;;;;;;;-141.84;61.40;19897.16;5031796;28;20230;-62
2022/11/09 01:13:43;;;;;;;2.67;2.23;;;;;;;-141.84;62.25;19834.16;5031739;28;20232;-63
2022/11/09 01:16:14;;;;;;;3.73;2.53;;;;;;;-141.84;61.70;19884.97;5031481;28;20670;-63
2022/11/09 01:18:43;;;;;;;5.80;2.60;;;;;;;-141.84;61.85;19899.19;5031981;28;20209;-65
2022/11/09 01:21:13;;;;;;;2.60;2.40;;;;;;;-141.84;62.09;19880.91;5031469;28;20233;-62
2022/11/09 01:23:43;;;;;;;2.57;2.37;;;;;;;-141.84;61.78;19882.94;5031279;28;20229;-63
2022/11/09 01:26:13;;;;;;;4.27;2.50;;;;;;;-141.84;61.81;19891.06;5031202;28;20233;-63
2022/11/09 01:28:42;;;;;;;3.13;2.43;;;;;;;-141.84;61.78;19868.72;5031191;28;20230;-63
2022/11/09 01:31:14;;;;;;;3.23;2.30;;;;;;;-141.84;61.78;19878.88;5031551;28;20233;-63
2022/11/09 01:33:43;;;;;;;3.03;2.53;;;;;;;-141.84;62.03;19872.78;5031970;28;20191;-63
2022/11/09 01:36:13;;;;;;;2.60;2.22;;;;;;;-141.84;61.80;19882.94;5031140;28;20218;-63
2022/11/09 01:38:42;;;;;;;4.47;2.53;;;;;;;-141.84;61.77;19903.25;5031114;28;20229;-65
2022/11/09 01:41:15;;;;;;;2.83;2.53;;;12.60;99.90;;;-141.84;61.29;19872.78;5031183;28;20909;-64
2022/11/09 01:43:45;;;;;;;2.73;2.47;;;;;;;-141.84;61.37;19915.47;5030793;28;20225;-63
2022/11/09 01:46:22;;;;;;;3.27;2.40;;;;;;;-141.84;61.27;19884.97;5030731;28;20229;-63
2022/11/09 01:48:56;;;;;;;2.47;2.27;;;;;;;-141.84;61.50;19913.44;5031440;28;20657;-63
2022/11/09 01:51:27;;;;;;;2.83;2.33;;;;;;;-141.84;61.14;19919.53;5030985;28;20229;-64
2022/11/09 01:54:00;;;;;;;3.57;2.70;;;;;;;-141.84;60.84;19891.06;5030983;28;20233;-64
2022/11/09 01:56:30;;;;;;;2.67;2.47;;;;;;;-141.84;60.56;19925.63;5030809;28;20230;-64
2022/11/09 01:59:03;;;;;;;3.65;3.00;;;;;;;-141.84;60.84;19911.41;5030957;28;20233;-63
2022/11/09 02:01:35;;;;;;;3.85;3.03;;;;;;;-141.84;60.80;19919.53;5030939;28;20226;-63
2022/11/09 02:04:08;;;;;;;4.40;2.73;;;;;;;-141.84;61.02;19901.22;5031093;28;20603;-63
2022/11/09 02:06:37;;;;;;;2.88;2.67;;;;;;;-141.84;60.52;19956.09;5030932;28;20229;-64
2022/11/09 02:09:11;;;;;;;2.67;2.40;;;;;;;-141.84;60.38;19913.44;5030501;28;20226;-63
2022/11/09 02:11:40;;;;;;;3.45;2.28;;;;;;;-141.84;61.09;19909.34;5030724;28;20229;-64
2022/11/09 02:14:08;;;;;;;3.00;2.70;;;12.30;99.90;;;-141.84;61.63;19876.84;5030446;28;20229;-64
2022/11/09 02:16:38;;;;;;;2.40;2.20;;;12.40;99.90;;;-141.84;61.52;19899.19;5030413;28;20620;-63
2022/11/09 02:19:06;;;;;;;3.73;3.00;;;12.30;99.90;;;-141.84;61.15;19889.03;5031030;28;20198;-64
2022/11/09 02:21:35;;;;;;;2.93;2.47;;;12.30;99.90;;;-141.84;61.61;19858.56;5030161;28;20259;-65
2022/11/09 02:24:04;;;;;;;3.37;2.40;;;12.30;99.90;;;-141.84;61.67;19884.97;5030374;28;20222;-65
2022/11/09 02:26:40;;;;;;;3.30;2.65;;;12.20;99.90;;;-141.84;61.99;19880.91;5030317;28;20237;-63
2022/11/09 02:29:13;;;;;;;3.77;2.70;;;12.20;99.90;;;-141.84;62.27;19864.66;5030447;28;20237;-63
2022/11/09 02:31:47;;;;;;;3.77;2.77;;;12.20;99.90;;;-141.84;62.35;19834.16;5030535;28;20222;-64
2022/11/09 02:34:19;;;;;;;3.20;2.63;;;12.10;99.90;;;-141.84;61.98;19895.13;5030333;28;20605;-63
2022/11/09 02:36:49;;;;;;;3.20;2.90;;;12.20;99.90;;;-141.84;61.01;19907.31;5031243;28;20183;-63
2022/11/09 02:39:21;;;;;;;2.83;2.50;;;12.30;99.90;;;-141.84;61.38;19897.16;5030068;28;20226;-63
2022/11/09 02:41:56;;;;;;;3.17;2.80;;;12.30;99.90;;;-141.84;61.15;19925.63;5030332;28;20229;-63
2022/11/09 02:44:30;;;;;;;3.33;2.60;;;12.40;99.90;;;-141.84;61.48;19915.47;5029749;28;20229;-64
2022/11/09 02:46:58;;;;;;;3.73;2.50;;;12.40;99.90;;;-141.84;61.60;19893.09;5030089;28;20578;-63
2022/11/09 02:49:26;;;;;;;3.80;2.50;;;12.30;99.90;;;-141.84;61.64;19919.53;5030126;28;20209;-66
2022/11/09 02:51:55;;;;;;;3.22;2.72;;;12.40;99.90;;;-141.84;60.92;19923.59;5030809;28;20259;-64
2022/11/09 02:54:23;;;;;;;3.67;2.53;;;12.40;99.90;;;-141.84;61.49;19919.53;5030120;28;20252;-64
2022/11/09 02:56:51;;;;;;;3.30;2.70;;;12.40;99.90;;;-141.84;61.85;19880.91;5031916;28;20292;-63
2022/11/09 02:59:19;;;;;;;4.27;2.60;;;12.40;99.90;;;-141.84;61.89;19887.00;5034165;28;20237;-63
2022/11/09 03:01:47;;;;;;;2.77;2.43;;;12.30;99.90;;;-141.84;62.20;19854.50;5034299;28;20233;-64
2022/11/09 03:04:15;;;;;;;3.80;2.70;;;12.30;99.90;;;-141.84;62.47;19880.91;5034325;28;20210;-64
2022/11/09 03:06:43;;;;;;;3.30;2.50;;;12.20;99.90;;;-141.84;61.79;19862.63;5034419;28;20222;-66
2022/11/09 03:09:13;;;;;;;2.53;2.33;;;12.20;99.90;;;-141.84;61.88;19866.69;5034122;28;20312;-63
2022/11/09 03:11:43;;;;;;;3.00;2.58;;;12.20;99.90;;;-141.84;61.89;19884.97;5034158;28;20229;-64
2022/11/09 03:14:11;;;;;;;3.50;2.50;;;12.30;99.90;;;-141.84;61.24;19878.88;5033766;28;20834;-63
2022/11/09 03:16:39;;;;;;;3.88;2.30;;;12.30;99.90;;;-141.84;61.36;19887.00;5034121;28;20222;-64
2022/11/09 03:19:08;;;;;;;4.37;2.50;;;12.30;99.90;;;-141.84;61.74;19891.06;5034730;28;20202;-63
2022/11/09 03:21:37;;;;;;;3.23;2.60;;;12.30;99.90;;;-141.84;61.97;19911.41;5014341;28;20249;-65
2022/11/09 03:24:06;;;;;;;2.90;2.40;;;12.20;99.90;;;-141.84;61.95;19889.03;5029506;28;20231;-62
2022/11/09 03:26:35;;;;;;;2.77;2.50;;;12.20;99.90;;;-141.84;62.09;19876.84;5033762;28;20242;-64
2022/11/09 03:29:03;;;;;;;4.50;2.70;;;12.20;99.90;;;-141.84;62.23;19868.72;5033613;28;20244;-63
2022/11/09 03:31:31;;;;;;;2.50;2.30;;;12.20;99.90;;;-141.84;62.65;19846.34;5033826;28;20230;-63
2022/11/09 03:33:59;;;;;;;3.63;2.50;;;12.20;99.90;;;-141.84;62.51;19854.50;5034094;28;20221;-63
2022/11/09 03:36:27;;;;;;;2.25;2.05;;;12.20;99.90;;;-141.84;62.46;19858.56;5033589;28;20222;-63
2022/11/09 03:38:55;;;;;;;2.77;2.50;;;12.10;99.90;;;-141.84;62.06;19895.13;5033216;28;20234;-63
2022/11/09 03:41:23;;;;;;;2.90;2.40;;;12.10;99.90;;;-141.84;61.29;19891.06;5033656;28;20234;-62
2022/11/09 03:43:52;;;;;;;2.83;2.50;;;12.30;99.90;;;-141.84;62.02;19907.31;5033122;28;20236;-63
2022/11/09 03:46:20;;;;;;;3.33;2.60;;;12.20;99.90;;;-141.84;61.38;19895.13;5033145;28;20253;-63
2022/11/09 03:48:48;;;;;;;3.10;2.80;;;12.30;99.90;;;-141.84;61.85;19897.16;5033893;28;20210;-62
2022/11/09 03:51:16;;;;;;;5.25;2.88;;;12.30;99.90;;;-141.84;61.07;19911.41;5033319;28;20226;-63
2022/11/09 03:53:45;;;;;;;3.38;2.53;;;12.30;99.90;;;-141.84;60.96;19913.44;5033162;28;20226;-63
2022/11/09 03:56:13;;;;;;;3.67;2.20;;;12.40;99.90;;;-141.84;61.33;19935.78;5033215;28;20226;-63
2022/11/09 03:58:41;;;;;;;3.50;2.53;;;12.40;99.90;;;-141.84;61.19;19899.19;5033052;28;20230;-64
2022/11/09 04:01:10;;;;;;;3.00;2.22;;;12.40;99.90;;;-141.84;62.00;19876.84;5033888;28;20353;-63
2022/11/09 04:03:39;;;;;;;3.88;2.58;;;12.30;99.90;;;-141.84;61.13;19891.06;5033164;28;20214;-63
2022/11/09 04:06:07;;;;;;;3.13;2.40;;;12.30;99.90;;;-141.84;62.13;19868.72;5033119;28;20237;-65
2022/11/09 04:08:35;;;;;;;2.80;2.50;;;12.20;99.90;;;-141.84;62.49;19848.38;5032417;28;20280;-64
2022/11/09 04:11:03;;;;;;;3.85;2.67;;;12.10;99.90;;;-141.84;63.24;19795.53;5033018;28;20229;-64
2022/11/09 04:13:31;;;;;;;3.23;2.60;;;12.10;99.90;;;-141.84;63.40;19826.03;5032446;28;20693;-64
2022/11/09 04:15:59;;;;;;;2.60;2.40;;;12.00;99.90;;;-141.84;63.53;19838.22;5033450;28;20612;-63
2022/11/09 04:18:28;;;;;;;5.90;2.60;;;12.00;99.90;;;-141.84;62.92;19838.22;5032548;28;20237;-63
2022/11/09 04:20:58;;;;;;;2.60;2.20;;;12.00;99.90;;;-141.84;63.29;19819.94;5032606;28;20724;-63
2022/11/09 04:23:26;;;;;;;2.50;2.30;;;12.00;99.90;;;-141.84;63.65;19791.47;5032623;28;20233;-63
2022/11/09 04:25:54;;;;;;;3.17;2.70;;;11.90;99.90;;;-141.84;64.38;19777.25;5032362;28;20222;-64
2022/11/09 04:28:22;;;;;;;2.90;2.40;;;11.80;99.90;;;-141.84;65.03;19756.94;5032333;28;20653;-63
2022/11/09 04:30:50;;;;;;;2.67;2.37;;;11.70;99.90;;;-141.84;65.65;19769.13;5033186;28;20213;-63
2022/11/09 04:33:18;;;;;;;2.97;2.53;;;11.60;99.90;;;-141.84;65.83;19799.63;5032331;28;20620;-63
2022/11/09 04:35:48;;;;;;;4.03;2.70;;;11.60;99.90;;;-141.84;65.42;19765.06;5032577;28;20236;-64
2022/11/09 04:38:17;;;;;;;3.17;2.88;;;11.60;99.90;;;-141.84;65.13;19777.25;5032344;28;20237;-63
2022/11/09 04:40:45;;;;;;;3.15;2.30;;;11.70;99.90;;;-141.84;64.96;19791.47;5032241;28;20233;-63
2022/11/09 04:43:14;;;;;;;3.00;2.40;;;11.70;99.90;;;-141.84;65.09;19781.31;5032324;28;20205;-64
2022/11/09 04:45:43;;;;;;;3.10;2.80;;;11.80;99.90;;;-141.84;64.81;19783.34;5032582;28;20234;-63
2022/11/09 04:48:11;;;;;;;3.10;2.80;;;11.80;99.90;;;-141.84;65.25;19789.44;5031921;28;20237;-62
2022/11/09 04:50:40;;;;;;;3.83;2.40;;;11.80;99.90;;;-141.84;65.89;19775.22;5031854;28;20218;-64
2022/11/09 04:53:12;;;;;;;4.00;2.57;;;11.90;99.90;;;-141.84;66.36;19795.53;5031941;28;20233;-63
2022/11/09 04:55:41;;;;;;;3.47;2.70;;;11.90;99.90;;;-141.84;67.65;19795.53;5031701;28;20728;-64
2022/11/09 04:58:09;;;;;;;5.17;2.90;;;11.90;99.90;;;-141.84;68.21;19805.72;5032537;28;20210;-63
2022/11/09 05:00:38;;;;;;;3.40;2.83;;;11.80;99.90;;;-141.84;68.24;19775.22;5032107;28;20264;-63
2022/11/09 05:03:07;;;;;;;4.80;2.80;;;11.80;99.90;;;-141.84;68.47;19779.28;5031971;28;20226;-63
2022/11/09 05:05:38;;;;;;;6.00;2.47;;;11.80;99.90;;;-141.84;69.26;19740.69;5031758;28;20241;-64
2022/11/09 05:08:15;;;;;;;5.03;4.10;;;11.80;99.90;;;-141.84;70.29;19748.81;5022889;28;20353;-65
2022/11/09 05:10:43;;;;;;;6.47;4.17;;;11.70;99.90;;;-141.84;70.72;19710.19;5011695;28;20237;-62
2022/11/09 05:13:13;;;;;;;5.10;3.37;;;11.60;99.90;;;-141.84;71.43;19691.91;5012139;28;20334;-64
2022/11/09 05:15:41;;;;;;;4.33;3.03;;;11.60;99.90;;;-141.84;72.22;19698.00;5012075;28;20213;-63
2022/11/09 05:18:10;;;;;;;5.43;3.20;;;11.50;99.90;;;-141.84;72.43;19716.28;5011556;28;20737;-63
2022/11/09 05:20:38;;;;;;;4.03;3.10;;;11.50;99.90;;;-141.84;73.14;19689.88;5011364;28;20652;-63
2022/11/09 05:25:53;;;;;;;3.63;2.83;;;11.50;99.90;;;-141.84;73.36;19643.13;5011650;28;20718;-63
2022/11/09 05:28:21;;;;;;;5.40;2.70;;;11.40;99.90;;;-141.84;73.20;19702.06;5011383;28;20631;-63
2022/11/09 05:30:49;;;;;;;4.97;3.30;;;11.40;99.90;;;-141.84;72.74;19700.03;5011985;28;20642;-65
2022/11/09 05:33:17;;;;;;;5.53;2.90;;;11.50;99.90;;;-141.84;73.26;19718.31;5011669;28;20644;-64
2022/11/09 05:35:46;;;;;;;3.17;2.90;;;11.50;99.90;;;-141.84;74.16;19679.72;5011320;28;20234;-63
2022/11/09 05:38:14;;;;;;;4.53;2.80;;;11.50;99.90;;;-141.84;73.97;19673.59;5011270;28;20604;-63
2022/11/09 05:40:42;;;;;;;5.13;2.87;;;11.60;99.90;;;-141.84;74.31;19667.50;5011458;28;20233;-65
2022/11/09 05:43:11;;;;;;;5.57;3.10;;;11.60;99.90;;;-141.84;75.05;19649.22;5011654;28;20623;-63
2022/11/09 05:45:39;;;;;;;5.83;3.13;;;11.60;99.90;;;-141.84;75.49;19661.41;5011541;28;20231;-63
2022/11/09 05:48:11;;;;;;;5.27;2.90;;;11.60;99.90;;;-141.84;75.89;19665.47;5011163;28;20231;-64
2022/11/09 05:50:40;;;;;;;2.97;2.67;;;11.60;99.90;;;-141.84;76.41;19671.56;5011171;28;20230;-62
2022/11/09 05:53:08;;;;;;;3.47;3.17;;;11.50;99.90;;;-141.84;77.02;19628.91;5011343;28;20226;-64
2022/11/09 05:55:37;;;;;;;4.43;2.70;;;11.50;99.90;;;-141.84;77.39;19606.53;5011067;28;20234;-63
2022/11/09 05:58:05;;;;;;;3.43;2.90;;;11.50;99.90;;;-141.84;77.72;19598.41;5011627;28;20214;-64
2022/11/09 06:00:35;;;;;;;4.27;3.00;;;11.40;99.90;;;-141.84;78.12;19602.47;5010983;28;20722;-64
2022/11/09 06:03:04;;;;;;;4.10;3.20;;;11.40;99.90;;;-141.84;78.29;19608.56;5011002;28;20231;-64
2022/11/09 06:05:33;;;;;;;4.20;3.17;;;11.40;99.90;;;-141.84;77.25;19606.53;5010865;28;20722;-63
2022/11/09 06:08:04;;;;;;;4.40;3.17;;;11.40;99.90;;;-141.84;76.65;19612.63;5010847;28;20771;-64
2022/11/09 06:10:33;;;;;;;4.40;3.50;;;11.40;99.90;;;-141.84;76.96;19612.63;5010881;28;20226;-63
2022/11/09 06:13:02;;;;;;;5.30;3.77;;;11.40;99.90;;;-141.84;76.83;19598.41;5011482;28;20206;-63
2022/11/09 06:15:30;;;;;;;4.40;3.37;;;11.40;99.90;;;-141.84;77.46;19628.91;5010614;28;20238;-63
2022/11/09 06:18:00;;;;;;;7.63;3.77;;;11.40;99.90;;;-141.84;76.46;19628.91;5010747;28;20230;-63
2022/11/09 06:20:28;;;;;;;4.10;3.10;;;11.50;99.90;;;-141.84;75.92;19653.28;5010591;28;20223;-63
2022/11/09 06:22:58;;;;;;;5.07;3.10;;;11.50;99.90;;;-141.84;76.18;19624.84;5010643;28;20226;-64
2022/11/09 06:25:32;;;;;;;4.10;3.50;;;11.60;99.90;;;-141.84;75.71;19661.41;5010630;28;20316;-63
2022/11/09 06:28:01;;;;;;;5.73;3.80;;;11.60;99.90;;;-141.84;75.81;19624.84;5010909;28;20226;-63
2022/11/09 06:30:29;;;;;;;4.57;3.60;;;11.70;99.90;;;-141.84;75.53;19632.97;5010148;28;20625;-64
2022/11/09 06:33:03;;;;;;;6.67;4.10;;;11.80;99.90;;;-141.84;74.57;19716.28;5010640;28;20256;-63
2022/11/09 06:35:31;;;;;;;6.57;3.37;;;11.80;99.90;;;-141.84;75.15;19594.34;5010989;28;20241;-63
2022/11/09 06:38:00;;;;;;;4.37;3.20;;;11.80;99.90;;;-141.84;75.84;19655.31;5010759;28;20256;-64
2022/11/09 06:40:29;;;;;;;3.30;3.00;;;11.80;99.90;;;-141.84;75.75;19659.38;5010826;28;20211;-64
2022/11/09 06:42:58;;;;;;;3.28;2.97;;;11.90;99.90;;;-141.84;74.73;19649.22;5011100;28;20215;-64
2022/11/09 06:45:28;;;;;;;4.60;3.10;;;11.90;99.90;;;-141.84;75.13;19661.41;5010247;28;20239;-64
2022/11/09 06:47:57;;;;;;;5.30;3.67;;;11.90;99.90;;;-141.84;75.42;19612.63;5010406;28;20226;-63
2022/11/09 06:50:30;;;;;;;4.03;3.30;;;11.90;99.90;;;-141.84;75.42;19632.97;5010540;28;20242;-64
2022/11/09 06:53:00;;;;;;;3.80;3.03;;;11.90;99.90;;;-141.84;76.26;19637.03;5010552;28;20222;-64
2022/11/09 06:55:30;;;;;;;4.23;3.07;;;11.90;99.90;;;-141.84;76.88;19626.88;5010525;28;20507;-63
2022/11/09 06:57:59;;;;;;;5.43;3.93;;;11.80;99.90;;;-141.84;77.67;19618.75;5011003;28;20570;-64
2022/11/09 07:00:28;;;;;;;7.00;5.47;;;11.80;99.90;;;-141.84;78.08;19606.53;5010214;28;20234;-64
2022/11/09 07:02:56;;;;;;;3.57;3.27;;;11.80;99.90;;;-141.84;78.56;19582.16;5010350;28;20286;-63
2022/11/09 07:05:26;;;;;;;3.40;2.97;;;11.80;99.90;;;-141.84;79.04;19580.13;5010458;28;20602;-63
2022/11/09 07:07:54;;;;;;;4.43;3.07;;;11.70;99.90;;;-141.84;79.92;19541.50;5010385;28;20226;-64
2022/11/09 07:10:22;;;;;;;2.93;2.67;;;11.70;99.90;;;-141.84;80.30;19563.88;5010538;28;20209;-63
2022/11/09 07:12:50;;;;;;;3.30;3.00;;;11.60;99.90;;;-141.84;80.69;19537.44;5010860;28;20207;-62
2022/11/09 07:15:18;;;;;;;3.40;2.93;;;11.60;99.90;;;-141.84;81.39;19533.38;5010671;28;20226;-63
2022/11/09 07:17:46;;;;;;;5.03;3.30;;;11.60;99.90;;;-141.84;81.31;19509.00;5023430;28;20272;-64
2022/11/09 07:20:15;;;;;;;3.63;3.27;;;11.60;99.90;;;-141.84;81.54;19541.50;5030082;28;20280;-63
2022/11/09 07:22:48;;;;;;;3.70;3.30;;;11.60;99.90;;;-141.84;81.06;19531.34;5030087;28;20233;-64
2022/11/09 07:25:17;;;;;;;3.47;3.17;;;11.70;99.90;;;-141.84;80.94;19594.34;5030280;28;20646;-64
2022/11/09 07:27:46;;;;;;;4.70;3.57;;;11.70;99.90;;;-141.84;81.49;19549.63;5030206;28;20218;-63
2022/11/09 07:30:14;;;;;;;3.87;3.47;;;11.70;99.90;;;-141.84;82.77;19511.03;5030091;28;20302;-63
2022/11/09 07:32:43;;;;;;;5.07;3.20;;;11.70;99.90;;;-141.84;83.57;19480.53;5028551;28;20492;-63
2022/11/09 07:35:31;;;;;;;3.63;3.30;;;11.60;99.90;;;-141.84;84.31;19452.09;5029397;28;20751;-63
2022/11/09 07:38:01;;;;;;;5.10;3.80;;;11.50;99.90;;;-141.84;84.39;19466.31;5029566;28;20294;-62
2022/11/09 07:40:30;;;;;;;4.07;3.53;;;11.50;99.90;;;-141.84;84.19;19468.34;5029624;28;20582;-64
2022/11/09 07:42:59;;;;;;;4.13;3.40;;;11.60;99.90;;;-141.84;83.87;19460.22;5031827;28;20206;-62
2022/11/09 07:45:27;;;;;;;4.53;3.15;;;11.50;99.90;;;-141.84;84.33;19458.19;5032948;28;20240;-63
2022/11/09 07:47:57;;;;;;;3.70;3.40;;;11.60;99.90;;;-141.84;84.75;19417.56;5033079;28;20222;-63
2022/11/09 07:50:26;;;;;;;4.40;3.27;;;11.50;99.90;;;-141.84;85.79;19419.59;5033020;28;20232;-63
2022/11/09 07:52:55;;;;;;;5.23;3.17;;;11.50;99.90;;;-141.84;84.72;19448.03;5032840;28;20717;-63
2022/11/09 07:55:27;;;;;;;4.00;3.60;;;11.60;99.90;;;-141.84;84.69;19446.00;5032748;28;20604;-63
2022/11/09 07:57:56;;;;;;;3.90;3.50;;;11.60;99.90;;;-141.84;84.30;19439.91;5033191;28;20182;-62
2022/11/09 08:00:25;;;;;;;5.03;3.42;;;11.60;99.90;;;-141.84;83.58;19450.06;5032735;28;20226;-63
2022/11/09 08:02:54;;;;;;;4.67;3.30;;;11.70;99.90;;;-141.84;84.46;19391.13;5032592;28;20225;-63
2022/11/09 08:05:22;;;;;;;4.60;3.40;;;11.60;99.90;;;-141.84;84.98;19397.22;5032819;28;20713;-63
2022/11/09 08:07:55;;;;;;;4.60;3.33;;;11.60;99.90;;;-141.84;85.24;19397.22;5032663;28;20237;-62
2022/11/09 08:10:27;;;;;;;4.78;3.03;;;11.60;99.90;;;-141.84;84.60;19466.31;5032739;28;20189;-62
2022/11/09 08:12:58;;;;;;;5.30;3.40;;;11.60;99.90;;;-141.84;84.88;19423.66;5033282;28;20193;-63
2022/11/09 08:15:27;;;;;;;4.57;3.27;;;11.70;99.90;;;-141.84;84.85;19443.97;5032509;28;20222;-62
2022/11/09 08:18:00;;;;;;;5.67;3.20;;;11.70;99.90;;;-141.84;84.58;19411.44;5032423;28;20237;-61
2022/11/09 08:20:28;;;;;;;3.50;3.20;;;11.80;99.90;;;-141.84;84.94;19385.03;5032565;28;20237;-62
2022/11/09 08:22:57;;;;;;;3.40;3.10;;;11.80;99.90;;;-141.84;84.74;19431.78;5032476;28;20230;-62
2022/11/09 08:25:33;;;;;;;8.13;3.20;;;11.90;99.90;;;-141.84;83.80;19431.78;5032511;28;20253;-63
2022/11/09 08:28:02;;;;;;;3.73;3.43;;;11.90;99.90;;;-141.84;82.91;19425.69;5032708;28;20206;-63
2022/11/09 08:30:31;;;;;;;4.87;3.40;;;11.90;99.90;;;-141.84;83.33;19433.81;5032215;28;20578;-62
2022/11/09 08:33:01;;;;;;;5.10;3.40;;;11.90;99.90;;;-141.84;83.63;19450.06;5031954;28;20264;-62
2022/11/09 08:35:29;;;;;;;5.43;3.63;;;11.90;99.90;;;-141.84;83.51;19450.06;5032184;28;20226;-62
2022/11/09 08:38:02;;;;;;;3.87;3.30;;;11.90;99.90;;;-141.84;83.53;19439.91;5031692;28;20743;-64
2022/11/09 08:40:34;;;;;;;3.87;3.10;;;11.90;99.90;;;-141.84;83.25;19468.34;5032220;28;20244;-62
2022/11/09 08:43:04;;;;;;;4.30;3.43;;;12.00;99.90;;;-141.84;80.47;19482.56;5032608;28;20197;-60
2022/11/09 08:45:34;;;;;;;4.68;2.97;;;12.10;99.90;;;-141.84;81.06;19496.81;5031973;28;20253;-63
2022/11/09 08:48:04;;;;;;;3.80;3.40;;;12.10;99.90;;;-141.84;81.22;19456.16;5031947;28;20233;-62
2022/11/09 08:50:35;;;;;;;3.75;3.38;;;12.20;99.90;;;-141.84;80.78;19484.59;5031905;28;20226;-63
2022/11/09 08:53:05;;;;;;;3.67;3.22;;;12.20;99.90;;;-141.84;80.03;19492.75;5031819;28;20221;-63
2022/11/09 08:55:34;;;;;;;3.57;3.27;;;12.30;99.90;;;-141.84;78.93;19474.44;5031387;28;20226;-63
2022/11/09 08:58:04;;;;;;;4.10;3.47;;;12.30;99.90;;;-141.84;78.96;19525.25;5031994;28;20206;-65
2022/11/09 09:00:32;;;;;;;3.67;3.22;;;12.40;99.90;;;-141.84;79.05;19521.19;5031669;28;20379;-64
2022/11/09 09:03:04;;;;;;;3.50;3.20;;;12.40;99.90;;;-141.84;78.11;19596.38;5031607;28;20237;-64
2022/11/09 09:05:33;;;;;;;3.10;2.90;;;12.50;99.90;;;-141.84;77.36;19580.13;5031868;28;20633;-65
2022/11/09 09:08:04;;;;;;;3.90;3.47;;;12.50;99.90;;;-141.84;77.25;19572.00;5031658;28;20249;-64
2022/11/09 09:10:35;;;;;;;3.70;3.40;;;12.60;99.90;;;-141.84;76.58;19614.66;5031585;28;20241;-63
2022/11/09 09:13:04;;;;;;;3.58;2.75;;;12.70;99.90;;;-141.84;76.25;19567.94;5032206;28;20197;-61
2022/11/09 09:15:32;;;;;;;3.85;2.83;;;12.70;99.90;;;-141.84;76.72;19569.97;5031515;28;20233;-62
2022/11/09 09:18:01;;;;;;;6.07;3.28;;;12.60;99.90;;;-141.84;75.50;19590.28;5031446;28;20230;-61
2022/11/09 09:20:30;;;;;;;4.70;3.40;;;12.60;99.90;;;-141.84;75.68;19588.25;5031545;28;20237;-63
2022/11/09 09:22:59;;;;;;;4.68;3.33;;;12.80;99.90;;;-141.84;75.27;19610.59;5031573;28;20240;-61
2022/11/09 09:25:28;;;;;;;3.78;3.47;;;12.80;99.90;;;-141.84;74.49;19639.06;5031318;28;20198;-65
2022/11/09 09:27:57;;;;;;;4.97;3.30;;;12.80;99.90;;;-141.84;74.24;19669.53;5031904;28;20206;-60
2022/11/09 09:30:25;;;;;;;4.13;3.72;;;12.90;99.90;;;-141.84;74.01;19698.00;5030932;28;20713;-64
2022/11/09 09:32:59;;;;;;;4.57;3.47;;;12.90;99.90;;;-141.84;73.51;19677.66;5030922;28;20348;-62
2022/11/09 09:35:27;;;;;;;4.13;3.25;;;13.00;99.90;;;-141.84;73.19;19647.19;5031137;28;20596;-65
2022/11/09 09:37:56;;;;;;;3.70;3.00;;;13.10;99.90;;;-141.84;72.04;19718.31;5031169;28;20587;-64
2022/11/09 09:40:33;;;;;;;3.67;3.30;;;13.20;99.90;;;-141.84;71.69;19710.19;5030857;28;20213;-63
2022/11/09 09:43:03;;;;;;;3.40;3.10;;;13.20;99.90;;;-141.84;71.92;19714.25;5031482;28;20200;-63
2022/11/09 09:45:35;;;;;;;4.00;3.20;;;13.30;99.90;;;-141.84;71.48;19718.31;5030478;28;20241;-64
2022/11/09 09:48:20;;;;;;;3.72;3.30;;;13.40;99.90;;;-141.84;71.20;19797.59;5030763;28;20252;-64
2022/11/09 09:50:53;;;;;;;4.50;3.08;;;13.60;99.90;;;-141.84;68.39;19874.81;5031120;28;20313;-64
2022/11/09 09:53:31;;;;;;;3.28;2.97;;;13.90;99.90;;;-141.84;66.76;19927.66;5031151;28;20237;-65
2022/11/09 09:56:09;;;;;;;3.35;3.05;;;14.20;99.90;;;-141.84;66.49;19937.81;5030730;28;20230;-64
2022/11/09 09:58:45;;;;;;;3.05;2.85;;;14.30;99.90;;;-141.84;67.00;19893.09;5030336;28;20222;-64
2022/11/09 10:01:18;;;;;;;3.47;3.17;;;14.30;99.90;;;-141.84;68.11;19935.78;5030884;28;20190;-67
2022/11/09 10:03:47;;;;;;;2.85;2.58;;;14.30;99.90;;;-141.84;68.57;19870.75;5031318;28;20191;-66
2022/11/09 10:06:40;;;;;;;4.15;3.05;;;14.20;99.90;;;-141.84;68.43;19850.41;5030557;28;20584;-66
2022/11/09 10:09:26;;;;;;;3.78;3.25;;;14.10;99.90;;;-141.84;68.97;19866.69;5030702;28;20260;-66
2022/11/09 10:12:08;;;;;;;2.53;2.33;;;14.10;99.90;;;-141.84;69.90;19809.78;5030591;28;20230;-66
2022/11/09 10:15:14;;;;;;;3.58;2.78;;;14.00;99.90;;;-141.84;70.21;19842.28;5030161;28;20230;-66
2022/11/09 10:17:59;;;;;;;3.30;2.50;;;14.10;99.90;;;-141.84;69.05;19891.06;5030137;28;20237;-67
2022/11/09 10:20:50;;;;;;;6.75;3.92;;;14.30;99.90;;;-141.84;68.11;19941.88;5030434;28;20226;-69
2022/11/09 10:23:43;;;;;;;3.35;2.90;;;14.50;99.90;;;-141.84;64.95;20074.00;5030472;28;20236;-64
2022/11/09 10:26:21;;;;;;;4.78;2.83;;;14.90;99.90;;;-141.84;64.74;20090.25;5030313;28;20245;-64
2022/11/09 10:28:56;;;;;;;3.35;2.97;;;15.10;99.90;;;-141.84;65.13;20074.00;5030293;28;20233;-63
2022/11/09 10:31:48;;;;;;;3.38;2.55;;;15.20;99.90;;;-141.84;62.91;20128.88;5030108;28;20306;-67
2022/11/09 10:34:20;;;;;;;2.90;2.60;;;15.40;99.90;;;-141.84;63.66;20110.56;5030028;28;20665;-65
2022/11/09 10:36:59;;;;;;;2.85;2.55;;;15.40;99.90;;;-141.84;64.36;20065.84;5031010;28;20273;-64